Aérodrome :
LOGIN :

S'inscrire | Disclaimer

   EN    FR    IT 

 










Légende :    VFR   VFR Marginal   IFR   IFR Intensif   IFR Très Intensif
Visi : 
Plafond : 
>= 8 km
>= 3000ft
5 à 8 km
1000 à 3000 ft
1500m à 5 km
500 à 1000 ft
800 à 1500m
200 à 500 ft
< 800m
< 200 ft
Symboles :   Orages  Brouillard  Fortes neiges  Fortes précipitations  Vent > 20 kt
SIGMETs :   Divers  Orages  Givrage  Turbulence  Onde Orograph.  Cendres Volcan.






- Altitude de l'aérodrome : 49 ft
- Code IATA : GLZ


EHGR - Gilze-Rijen Airbase

DERNIER METAR :
  • 180855Z AUTO 02004KT 280V060 9999 NCD 10/05 Q1023 BLU

METARs EXPIRÉS :
  • 180825Z AUTO 36003KT 270V050 9999 NCD 09/05 Q1023 BLU
  • 180755Z AUTO 33003KT 290V030 9999 NCD 07/06 Q1023 BLU
  • 180739Z AUTO 29004KT 240V350 9000 BR FEW002 06/06 Q1023 BLU
  • 180730Z AUTO 28004KT 240V350 6000 BR FEW002 BKN003 06/06 Q1023 YLO
  • 180729Z AUTO 29003KT 240V350 5000 BR SCT002 BKN003 06/06 Q1023 AMB
  • 180706Z AUTO 32003KT 260V340 2200 BR OVC000 05/05 Q1023 RED
  • 180655Z AUTO 32003KT 260V350 0150 FG VV000 05/05 Q1023 RED
  • 180625Z AUTO 31003KT 240V340 0100 FG VV000 04/04 Q1023 RED

Prévision TAF périmée.



MET'MAP, la Météo Aéronautique d'un coup d'oeil ! - Copyright ORBIFLY Décembre 2007 - Disclaimer

ORBIFLY MET'MAP TEAM :

Programmation & Développement : Alexandra Zaïnal
Sur une idée originale de : Baudouin d'Aumeries
Assistance à la programmation : Marc-Olivier Méhu
Soutien technique & logistique : Manuel Goepfert

Contact : metmap@orbifly.com




SOURCES & CREDITS :

   NOAA